sensor_id;sensor_type;location;lat;lon;timestamp;temperature;humidity
11549;DHT22;61444;59.472;18.306;2023-06-04T00:00:41;11.40;99.90
11549;DHT22;61444;59.472;18.306;2023-06-04T00:02:49;11.40;99.90
11549;DHT22;61444;59.472;18.306;2023-06-04T00:04:58;11.40;99.90
11549;DHT22;61444;59.472;18.306;2023-06-04T00:07:07;11.50;99.90
11549;DHT22;61444;59.472;18.306;2023-06-04T00:09:15;11.50;99.90
11549;DHT22;61444;59.472;18.306;2023-06-04T00:11:24;11.50;99.90
11549;DHT22;61444;59.472;18.306;2023-06-04T00:13:35;11.50;99.90
11549;DHT22;61444;59.472;18.306;2023-06-04T00:15:44;11.50;99.90
11549;DHT22;61444;59.472;18.306;2023-06-04T00:17:52;11.50;99.90
11549;DHT22;61444;59.472;18.306;2023-06-04T00:20:04;11.50;99.90
11549;DHT22;61444;59.472;18.306;2023-06-04T00:22:13;11.40;99.90
11549;DHT22;61444;59.472;18.306;2023-06-04T00:24:22;11.40;99.90
11549;DHT22;61444;59.472;18.306;2023-06-04T00:26:31;11.40;99.90
11549;DHT22;61444;59.472;18.306;2023-06-04T00:28:42;11.40;99.90
11549;DHT22;61444;59.472;18.306;2023-06-04T00:30:51;11.40;99.90
11549;DHT22;61444;59.472;18.306;2023-06-04T00:33:01;11.40;99.90
11549;DHT22;61444;59.472;18.306;2023-06-04T00:35:10;11.40;99.90
11549;DHT22;61444;59.472;18.306;2023-06-04T00:37:18;11.40;99.90
11549;DHT22;61444;59.472;18.306;2023-06-04T00:39:27;11.40;99.90
11549;DHT22;61444;59.472;18.306;2023-06-04T00:41:36;11.30;99.90
11549;DHT22;61444;59.472;18.306;2023-06-04T00:43:46;11.40;99.90
11549;DHT22;61444;59.472;18.306;2023-06-04T00:46:03;11.40;99.90
11549;DHT22;61444;59.472;18.306;2023-06-04T00:48:12;11.40;99.90
11549;DHT22;61444;59.472;18.306;2023-06-04T00:50:21;11.40;99.90
11549;DHT22;61444;59.472;18.306;2023-06-04T00:52:29;11.40;99.90
11549;DHT22;61444;59.472;18.306;2023-06-04T00:54:38;11.30;99.90
11549;DHT22;61444;59.472;18.306;2023-06-04T00:56:48;11.30;99.90
11549;DHT22;61444;59.472;18.306;2023-06-04T00:58:58;11.20;99.90
11549;DHT22;61444;59.472;18.306;2023-06-04T01:01:12;11.30;99.90
11549;DHT22;61444;59.472;18.306;2023-06-04T01:03:25;11.20;99.90
11549;DHT22;61444;59.472;18.306;2023-06-04T01:05:39;11.20;99.90
11549;DHT22;61444;59.472;18.306;2023-06-04T01:07:50;11.00;99.90
11549;DHT22;61444;59.472;18.306;2023-06-04T01:10:00;10.90;99.90
11549;DHT22;61444;59.472;18.306;2023-06-04T01:12:09;10.80;99.90
11549;DHT22;61444;59.472;18.306;2023-06-04T01:14:19;10.80;99.90
11549;DHT22;61444;59.472;18.306;2023-06-04T01:16:32;10.80;99.90
11549;DHT22;61444;59.472;18.306;2023-06-04T01:18:43;10.70;99.90
11549;DHT22;61444;59.472;18.306;2023-06-04T01:20:57;10.70;99.90
11549;DHT22;61444;59.472;18.306;2023-06-04T01:23:33;10.60;99.90
11549;DHT22;61444;59.472;18.306;2023-06-04T01:25:42;10.60;99.90
11549;DHT22;61444;59.472;18.306;2023-06-04T01:27:55;10.50;99.90
11549;DHT22;61444;59.472;18.306;2023-06-04T01:30:08;10.60;99.90
11549;DHT22;61444;59.472;18.306;2023-06-04T01:32:17;10.50;99.90
11549;DHT22;61444;59.472;18.306;2023-06-04T01:34:27;10.50;99.90
11549;DHT22;61444;59.472;18.306;2023-06-04T01:36:36;10.50;99.90
11549;DHT22;61444;59.472;18.306;2023-06-04T01:38:45;10.50;99.90
11549;DHT22;61444;59.472;18.306;2023-06-04T01:40:53;10.40;99.90
11549;DHT22;61444;59.472;18.306;2023-06-04T01:43:04;10.50;99.90
11549;DHT22;61444;59.472;18.306;2023-06-04T01:45:14;10.60;99.90
11549;DHT22;61444;59.472;18.306;2023-06-04T01:47:23;10.60;99.90
11549;DHT22;61444;59.472;18.306;2023-06-04T01:49:32;10.50;99.90
11549;DHT22;61444;59.472;18.306;2023-06-04T01:51:41;10.50;99.90
11549;DHT22;61444;59.472;18.306;2023-06-04T01:53:49;10.50;99.90
11549;DHT22;61444;59.472;18.306;2023-06-04T01:55:58;10.50;99.90
11549;DHT22;61444;59.472;18.306;2023-06-04T01:58:08;10.50;99.90
11549;DHT22;61444;59.472;18.306;2023-06-04T02:00:18;10.50;99.90
11549;DHT22;61444;59.472;18.306;2023-06-04T02:02:27;10.40;99.90
11549;DHT22;61444;59.472;18.306;2023-06-04T02:04:36;10.30;99.90
11549;DHT22;61444;59.472;18.306;2023-06-04T02:06:48;10.20;99.90
11549;DHT22;61444;59.472;18.306;2023-06-04T02:08:57;10.20;99.90
11549;DHT22;61444;59.472;18.306;2023-06-04T02:11:07;10.10;99.90
11549;DHT22;61444;59.472;18.306;2023-06-04T02:13:16;10.00;99.90
11549;DHT22;61444;59.472;18.306;2023-06-04T02:15:27;9.90;99.90
11549;DHT22;61444;59.472;18.306;2023-06-04T02:17:36;10.00;99.90
11549;DHT22;61444;59.472;18.306;2023-06-04T02:19:47;10.00;99.90
11549;DHT22;61444;59.472;18.306;2023-06-04T02:21:57;9.80;99.90
11549;DHT22;61444;59.472;18.306;2023-06-04T02:24:05;9.80;99.90
11549;DHT22;61444;59.472;18.306;2023-06-04T02:26:14;9.80;99.90
11549;DHT22;61444;59.472;18.306;2023-06-04T02:28:23;9.80;99.90
11549;DHT22;61444;59.472;18.306;2023-06-04T02:30:33;9.80;99.90
11549;DHT22;61444;59.472;18.306;2023-06-04T02:32:43;9.90;99.90
11549;DHT22;61444;59.472;18.306;2023-06-04T02:34:58;9.80;99.90
11549;DHT22;61444;59.472;18.306;2023-06-04T02:37:07;9.80;99.90
11549;DHT22;61444;59.472;18.306;2023-06-04T02:39:16;9.70;99.90
11549;DHT22;61444;59.472;18.306;2023-06-04T02:41:24;9.70;99.90
11549;DHT22;61444;59.472;18.306;2023-06-04T02:43:33;9.70;99.90
11549;DHT22;61444;59.472;18.306;2023-06-04T02:45:44;9.60;99.90
11549;DHT22;61444;59.472;18.306;2023-06-04T02:47:52;9.60;99.90
11549;DHT22;61444;59.472;18.306;2023-06-04T02:50:01;9.60;99.90
11549;DHT22;61444;59.472;18.306;2023-06-04T02:52:11;9.60;99.90
11549;DHT22;61444;59.472;18.306;2023-06-04T02:54:20;9.60;99.90
11549;DHT22;61444;59.472;18.306;2023-06-04T02:56:29;9.60;99.90
11549;DHT22;61444;59.472;18.306;2023-06-04T02:58:38;9.60;99.90
11549;DHT22;61444;59.472;18.306;2023-06-04T03:00:57;9.60;99.90
11549;DHT22;61444;59.472;18.306;2023-06-04T03:03:06;9.60;99.90
11549;DHT22;61444;59.472;18.306;2023-06-04T03:05:16;9.60;99.90
11549;DHT22;61444;59.472;18.306;2023-06-04T03:07:25;9.60;99.90
11549;DHT22;61444;59.472;18.306;2023-06-04T03:09:34;9.50;99.90
11549;DHT22;61444;59.472;18.306;2023-06-04T03:11:43;9.40;99.90
11549;DHT22;61444;59.472;18.306;2023-06-04T03:13:52;9.40;99.90
11549;DHT22;61444;59.472;18.306;2023-06-04T03:16:03;9.40;99.90
11549;DHT22;61444;59.472;18.306;2023-06-04T03:18:16;9.50;99.90
11549;DHT22;61444;59.472;18.306;2023-06-04T03:20:26;9.50;99.90
11549;DHT22;61444;59.472;18.306;2023-06-04T03:22:34;9.50;99.90
11549;DHT22;61444;59.472;18.306;2023-06-04T03:24:43;9.40;99.90
11549;DHT22;61444;59.472;18.306;2023-06-04T03:26:52;9.50;99.90
11549;DHT22;61444;59.472;18.306;2023-06-04T03:29:01;9.40;99.90
11549;DHT22;61444;59.472;18.306;2023-06-04T03:31:11;9.40;99.90
11549;DHT22;61444;59.472;18.306;2023-06-04T03:33:20;9.40;99.90
11549;DHT22;61444;59.472;18.306;2023-06-04T03:35:32;9.50;99.90
11549;DHT22;61444;59.472;18.306;2023-06-04T03:37:41;9.50;99.90
11549;DHT22;61444;59.472;18.306;2023-06-04T03:39:50;9.60;99.90
11549;DHT22;61444;59.472;18.306;2023-06-04T03:42:00;9.50;99.90
11549;DHT22;61444;59.472;18.306;2023-06-04T03:44:08;9.60;99.90
11549;DHT22;61444;59.472;18.306;2023-06-04T03:46:19;9.50;99.90
11549;DHT22;61444;59.472;18.306;2023-06-04T03:48:27;9.50;99.90
11549;DHT22;61444;59.472;18.306;2023-06-04T03:50:36;9.50;99.90
11549;DHT22;61444;59.472;18.306;2023-06-04T03:52:45;9.40;99.90
11549;DHT22;61444;59.472;18.306;2023-06-04T03:54:54;9.50;99.90
11549;DHT22;61444;59.472;18.306;2023-06-04T03:57:03;9.50;99.90
11549;DHT22;61444;59.472;18.306;2023-06-04T03:59:12;9.60;99.90
11549;DHT22;61444;59.472;18.306;2023-06-04T04:01:23;9.60;99.90
11549;DHT22;61444;59.472;18.306;2023-06-04T04:03:34;9.50;99.90
11549;DHT22;61444;59.472;18.306;2023-06-04T04:05:43;9.50;99.90
11549;DHT22;61444;59.472;18.306;2023-06-04T04:07:52;9.40;99.90
11549;DHT22;61444;59.472;18.306;2023-06-04T04:10:01;9.40;99.90
11549;DHT22;61444;59.472;18.306;2023-06-04T04:12:09;9.40;99.90
11549;DHT22;61444;59.472;18.306;2023-06-04T04:14:18;9.40;99.90
11549;DHT22;61444;59.472;18.306;2023-06-04T04:16:29;9.50;99.90
11549;DHT22;61444;59.472;18.306;2023-06-04T04:18:37;9.40;99.90
11549;DHT22;61444;59.472;18.306;2023-06-04T04:20:46;9.30;99.90
11549;DHT22;61444;59.472;18.306;2023-06-04T04:22:55;9.20;99.90
11549;DHT22;61444;59.472;18.306;2023-06-04T04:25:04;9.20;99.90
11549;DHT22;61444;59.472;18.306;2023-06-04T04:27:14;9.30;99.90
11549;DHT22;61444;59.472;18.306;2023-06-04T04:29:24;9.20;99.90
11549;DHT22;61444;59.472;18.306;2023-06-04T04:31:36;9.20;99.90
11549;DHT22;61444;59.472;18.306;2023-06-04T04:33:45;9.20;99.90
11549;DHT22;61444;59.472;18.306;2023-06-04T04:35:54;9.40;99.90
11549;DHT22;61444;59.472;18.306;2023-06-04T04:38:06;9.40;99.90
11549;DHT22;61444;59.472;18.306;2023-06-04T04:40:17;9.40;99.90
11549;DHT22;61444;59.472;18.306;2023-06-04T04:42:26;9.30;99.90
11549;DHT22;61444;59.472;18.306;2023-06-04T04:44:35;9.40;99.90
11549;DHT22;61444;59.472;18.306;2023-06-04T04:46:47;9.30;99.90
11549;DHT22;61444;59.472;18.306;2023-06-04T04:48:56;9.40;99.90
11549;DHT22;61444;59.472;18.306;2023-06-04T04:51:05;9.60;99.90
11549;DHT22;61444;59.472;18.306;2023-06-04T04:53:14;9.60;99.90
11549;DHT22;61444;59.472;18.306;2023-06-04T04:55:23;9.60;99.90
11549;DHT22;61444;59.472;18.306;2023-06-04T04:57:33;9.50;99.90
11549;DHT22;61444;59.472;18.306;2023-06-04T04:59:42;9.50;99.90
11549;DHT22;61444;59.472;18.306;2023-06-04T05:01:52;9.40;99.90
11549;DHT22;61444;59.472;18.306;2023-06-04T05:04:01;9.40;99.90
11549;DHT22;61444;59.472;18.306;2023-06-04T05:06:15;9.40;99.90
11549;DHT22;61444;59.472;18.306;2023-06-04T05:08:23;9.50;99.90
11549;DHT22;61444;59.472;18.306;2023-06-04T05:10:33;9.60;99.90
11549;DHT22;61444;59.472;18.306;2023-06-04T05:12:51;9.50;99.90
11549;DHT22;61444;59.472;18.306;2023-06-04T05:15:00;9.60;99.90
11549;DHT22;61444;59.472;18.306;2023-06-04T05:17:11;9.60;99.90
11549;DHT22;61444;59.472;18.306;2023-06-04T05:19:20;9.80;99.90
11549;DHT22;61444;59.472;18.306;2023-06-04T05:21:29;10.00;99.90
11549;DHT22;61444;59.472;18.306;2023-06-04T05:23:39;9.90;99.90
11549;DHT22;61444;59.472;18.306;2023-06-04T05:25:49;10.00;99.90
11549;DHT22;61444;59.472;18.306;2023-06-04T05:27:59;10.10;99.90
11549;DHT22;61444;59.472;18.306;2023-06-04T05:30:09;9.90;99.90
11549;DHT22;61444;59.472;18.306;2023-06-04T05:32:19;10.10;99.90
11549;DHT22;61444;59.472;18.306;2023-06-04T05:34:30;10.10;99.90
11549;DHT22;61444;59.472;18.306;2023-06-04T05:36:39;10.00;99.90
11549;DHT22;61444;59.472;18.306;2023-06-04T05:38:48;9.90;99.90
11549;DHT22;61444;59.472;18.306;2023-06-04T05:41:04;9.80;99.90
11549;DHT22;61444;59.472;18.306;2023-06-04T05:43:14;9.70;99.90
11549;DHT22;61444;59.472;18.306;2023-06-04T05:45:23;9.90;99.90
11549;DHT22;61444;59.472;18.306;2023-06-04T05:47:33;10.00;99.90
11549;DHT22;61444;59.472;18.306;2023-06-04T05:49:42;10.10;99.90
11549;DHT22;61444;59.472;18.306;2023-06-04T05:51:52;10.10;99.90
11549;DHT22;61444;59.472;18.306;2023-06-04T05:54:00;10.20;99.90
11549;DHT22;61444;59.472;18.306;2023-06-04T05:56:10;10.20;99.90
11549;DHT22;61444;59.472;18.306;2023-06-04T05:58:19;10.20;99.90
11549;DHT22;61444;59.472;18.306;2023-06-04T06:00:28;10.20;99.90
11549;DHT22;61444;59.472;18.306;2023-06-04T06:02:38;10.50;99.90
11549;DHT22;61444;59.472;18.306;2023-06-04T06:04:47;10.50;99.90
11549;DHT22;61444;59.472;18.306;2023-06-04T06:06:56;10.50;99.90
11549;DHT22;61444;59.472;18.306;2023-06-04T06:09:04;10.50;99.90
11549;DHT22;61444;59.472;18.306;2023-06-04T06:11:14;10.40;99.90
11549;DHT22;61444;59.472;18.306;2023-06-04T06:13:23;10.50;99.90
11549;DHT22;61444;59.472;18.306;2023-06-04T06:15:32;10.50;99.90
11549;DHT22;61444;59.472;18.306;2023-06-04T06:17:42;10.20;99.90
11549;DHT22;61444;59.472;18.306;2023-06-04T06:19:52;10.20;99.90
11549;DHT22;61444;59.472;18.306;2023-06-04T06:22:00;10.40;99.90
11549;DHT22;61444;59.472;18.306;2023-06-04T06:24:10;10.60;99.90
11549;DHT22;61444;59.472;18.306;2023-06-04T06:26:19;10.40;99.90
11549;DHT22;61444;59.472;18.306;2023-06-04T06:28:29;10.40;99.90
11549;DHT22;61444;59.472;18.306;2023-06-04T06:30:37;10.70;99.90
11549;DHT22;61444;59.472;18.306;2023-06-04T06:32:47;10.70;99.90
11549;DHT22;61444;59.472;18.306;2023-06-04T06:34:59;10.80;99.90
11549;DHT22;61444;59.472;18.306;2023-06-04T06:39:17;11.10;99.90
11549;DHT22;61444;59.472;18.306;2023-06-04T06:41:26;11.10;99.90
11549;DHT22;61444;59.472;18.306;2023-06-04T06:43:34;10.90;99.90
11549;DHT22;61444;59.472;18.306;2023-06-04T06:45:44;10.90;99.90
11549;DHT22;61444;59.472;18.306;2023-06-04T06:47:54;10.60;99.90
11549;DHT22;61444;59.472;18.306;2023-06-04T06:50:05;10.60;99.90
11549;DHT22;61444;59.472;18.306;2023-06-04T06:52:14;10.50;99.90
11549;DHT22;61444;59.472;18.306;2023-06-04T06:54:26;10.50;99.90
11549;DHT22;61444;59.472;18.306;2023-06-04T06:56:35;10.70;99.90
11549;DHT22;61444;59.472;18.306;2023-06-04T06:58:44;10.90;99.90
11549;DHT22;61444;59.472;18.306;2023-06-04T07:00:53;11.10;99.90
11549;DHT22;61444;59.472;18.306;2023-06-04T07:03:05;11.10;99.90
11549;DHT22;61444;59.472;18.306;2023-06-04T07:05:15;11.10;99.90
11549;DHT22;61444;59.472;18.306;2023-06-04T07:07:24;11.40;99.90
11549;DHT22;61444;59.472;18.306;2023-06-04T07:09:33;11.60;99.90
11549;DHT22;61444;59.472;18.306;2023-06-04T07:11:44;11.50;99.90
11549;DHT22;61444;59.472;18.306;2023-06-04T07:13:52;11.10;99.90
11549;DHT22;61444;59.472;18.306;2023-06-04T07:18:13;10.70;99.90
11549;DHT22;61444;59.472;18.306;2023-06-04T07:20:23;11.00;99.90
11549;DHT22;61444;59.472;18.306;2023-06-04T07:22:33;11.00;99.90
11549;DHT22;61444;59.472;18.306;2023-06-04T07:24:43;11.40;99.90
11549;DHT22;61444;59.472;18.306;2023-06-04T07:26:52;11.20;99.90
11549;DHT22;61444;59.472;18.306;2023-06-04T07:29:01;11.10;99.90
11549;DHT22;61444;59.472;18.306;2023-06-04T07:31:10;10.80;99.90
11549;DHT22;61444;59.472;18.306;2023-06-04T07:33:21;10.90;99.90
11549;DHT22;61444;59.472;18.306;2023-06-04T07:35:30;11.20;99.90
11549;DHT22;61444;59.472;18.306;2023-06-04T07:37:38;11.50;99.90
11549;DHT22;61444;59.472;18.306;2023-06-04T07:39:48;12.00;99.00
11549;DHT22;61444;59.472;18.306;2023-06-04T07:41:57;11.80;97.80
11549;DHT22;61444;59.472;18.306;2023-06-04T07:44:05;11.60;96.50
11549;DHT22;61444;59.472;18.306;2023-06-04T07:46:14;11.20;98.20
11549;DHT22;61444;59.472;18.306;2023-06-04T07:48:27;11.20;98.40
11549;DHT22;61444;59.472;18.306;2023-06-04T07:50:37;11.10;97.40
11549;DHT22;61444;59.472;18.306;2023-06-04T07:52:48;11.00;97.70
11549;DHT22;61444;59.472;18.306;2023-06-04T07:54:57;11.00;98.80
11549;DHT22;61444;59.472;18.306;2023-06-04T07:57:06;10.90;98.50
11549;DHT22;61444;59.472;18.306;2023-06-04T07:59:16;10.90;98.40
11549;DHT22;61444;59.472;18.306;2023-06-04T08:01:25;11.10;97.60
11549;DHT22;61444;59.472;18.306;2023-06-04T08:03:35;11.30;98.50
11549;DHT22;61444;59.472;18.306;2023-06-04T08:05:44;11.40;99.70
11549;DHT22;61444;59.472;18.306;2023-06-04T08:07:53;11.50;99.00
11549;DHT22;61444;59.472;18.306;2023-06-04T08:10:03;11.60;98.60
11549;DHT22;61444;59.472;18.306;2023-06-04T08:12:12;11.60;96.30
11549;DHT22;61444;59.472;18.306;2023-06-04T08:14:20;11.90;98.10
11549;DHT22;61444;59.472;18.306;2023-06-04T08:16:31;12.00;98.10
11549;DHT22;61444;59.472;18.306;2023-06-04T08:18:41;11.90;97.10
11549;DHT22;61444;59.472;18.306;2023-06-04T08:20:50;11.60;96.90
11549;DHT22;61444;59.472;18.306;2023-06-04T08:22:59;11.60;97.20
11549;DHT22;61444;59.472;18.306;2023-06-04T08:25:09;11.70;97.90
11549;DHT22;61444;59.472;18.306;2023-06-04T08:27:18;11.60;97.30
11549;DHT22;61444;59.472;18.306;2023-06-04T08:29:26;12.00;98.40
11549;DHT22;61444;59.472;18.306;2023-06-04T08:31:35;11.80;96.60
11549;DHT22;61444;59.472;18.306;2023-06-04T08:33:46;11.90;96.30
11549;DHT22;61444;59.472;18.306;2023-06-04T08:35:56;12.20;96.40
11549;DHT22;61444;59.472;18.306;2023-06-04T08:38:04;12.00;95.20
11549;DHT22;61444;59.472;18.306;2023-06-04T08:40:13;12.30;96.60
11549;DHT22;61444;59.472;18.306;2023-06-04T08:42:25;12.30;96.90
11549;DHT22;61444;59.472;18.306;2023-06-04T08:44:35;12.30;95.60
11549;DHT22;61444;59.472;18.306;2023-06-04T08:46:44;12.20;95.00
11549;DHT22;61444;59.472;18.306;2023-06-04T08:48:57;12.10;96.40
11549;DHT22;61444;59.472;18.306;2023-06-04T08:51:08;11.90;95.40
11549;DHT22;61444;59.472;18.306;2023-06-04T08:53:18;11.80;95.40
11549;DHT22;61444;59.472;18.306;2023-06-04T08:55:27;11.80;96.30
11549;DHT22;61444;59.472;18.306;2023-06-04T08:57:36;12.10;95.40
11549;DHT22;61444;59.472;18.306;2023-06-04T08:59:46;12.20;96.70
11549;DHT22;61444;59.472;18.306;2023-06-04T09:01:55;12.30;96.10
11549;DHT22;61444;59.472;18.306;2023-06-04T09:04:07;12.40;95.30
11549;DHT22;61444;59.472;18.306;2023-06-04T09:06:19;12.40;93.50
11549;DHT22;61444;59.472;18.306;2023-06-04T09:08:31;12.20;93.10
11549;DHT22;61444;59.472;18.306;2023-06-04T09:10:41;12.20;93.80
11549;DHT22;61444;59.472;18.306;2023-06-04T09:12:51;12.00;93.70
11549;DHT22;61444;59.472;18.306;2023-06-04T09:15:00;11.80;92.60
11549;DHT22;61444;59.472;18.306;2023-06-04T09:17:09;11.90;93.80
11549;DHT22;61444;59.472;18.306;2023-06-04T09:19:20;11.80;92.90
11549;DHT22;61444;59.472;18.306;2023-06-04T09:21:29;11.90;94.30
11549;DHT22;61444;59.472;18.306;2023-06-04T09:23:44;11.80;94.50
11549;DHT22;61444;59.472;18.306;2023-06-04T09:25:54;11.80;93.00
11549;DHT22;61444;59.472;18.306;2023-06-04T09:28:06;11.70;93.30
11549;DHT22;61444;59.472;18.306;2023-06-04T09:30:15;11.50;97.40
11549;DHT22;61444;59.472;18.306;2023-06-04T09:32:24;11.30;98.90
11549;DHT22;61444;59.472;18.306;2023-06-04T09:34:36;11.50;94.10
11549;DHT22;61444;59.472;18.306;2023-06-04T09:36:51;11.60;94.50
11549;DHT22;61444;59.472;18.306;2023-06-04T09:39:00;11.80;93.20
11549;DHT22;61444;59.472;18.306;2023-06-04T09:41:13;11.80;93.80
11549;DHT22;61444;59.472;18.306;2023-06-04T09:43:22;11.70;94.20
11549;DHT22;61444;59.472;18.306;2023-06-04T09:45:32;11.70;93.10
11549;DHT22;61444;59.472;18.306;2023-06-04T09:47:42;11.80;93.20
11549;DHT22;61444;59.472;18.306;2023-06-04T09:49:54;11.70;93.20
11549;DHT22;61444;59.472;18.306;2023-06-04T09:52:04;11.70;92.80
11549;DHT22;61444;59.472;18.306;2023-06-04T09:54:14;11.90;94.50
11549;DHT22;61444;59.472;18.306;2023-06-04T09:56:23;12.10;93.50
11549;DHT22;61444;59.472;18.306;2023-06-04T09:58:34;12.20;92.80
11549;DHT22;61444;59.472;18.306;2023-06-04T10:00:45;12.20;92.80
11549;DHT22;61444;59.472;18.306;2023-06-04T10:02:56;12.20;92.10
11549;DHT22;61444;59.472;18.306;2023-06-04T10:05:09;12.20;92.30
11549;DHT22;61444;59.472;18.306;2023-06-04T10:07:21;12.10;93.10
11549;DHT22;61444;59.472;18.306;2023-06-04T10:09:30;12.10;92.90
11549;DHT22;61444;59.472;18.306;2023-06-04T10:11:40;12.10;93.20
11549;DHT22;61444;59.472;18.306;2023-06-04T10:13:53;12.20;92.70
11549;DHT22;61444;59.472;18.306;2023-06-04T10:16:04;12.10;92.60
11549;DHT22;61444;59.472;18.306;2023-06-04T10:18:19;12.20;92.80
11549;DHT22;61444;59.472;18.306;2023-06-04T10:20:30;12.50;95.30
11549;DHT22;61444;59.472;18.306;2023-06-04T10:22:40;12.60;92.30
11549;DHT22;61444;59.472;18.306;2023-06-04T10:24:49;12.50;92.50
11549;DHT22;61444;59.472;18.306;2023-06-04T10:26:59;12.20;92.20
11549;DHT22;61444;59.472;18.306;2023-06-04T10:29:08;12.10;92.60
11549;DHT22;61444;59.472;18.306;2023-06-04T10:31:18;11.90;92.50
11549;DHT22;61444;59.472;18.306;2023-06-04T10:33:27;12.10;93.50
11549;DHT22;61444;59.472;18.306;2023-06-04T10:35:37;12.10;92.40
11549;DHT22;61444;59.472;18.306;2023-06-04T10:37:46;11.90;91.50
11549;DHT22;61444;59.472;18.306;2023-06-04T10:39:58;12.00;92.00
11549;DHT22;61444;59.472;18.306;2023-06-04T10:42:07;12.00;91.70
11549;DHT22;61444;59.472;18.306;2023-06-04T10:44:16;12.10;92.20
11549;DHT22;61444;59.472;18.306;2023-06-04T10:46:24;12.30;92.30
11549;DHT22;61444;59.472;18.306;2023-06-04T10:48:33;12.10;91.00
11549;DHT22;61444;59.472;18.306;2023-06-04T10:50:54;12.20;92.00
11549;DHT22;61444;59.472;18.306;2023-06-04T10:53:03;12.50;92.60
11549;DHT22;61444;59.472;18.306;2023-06-04T10:55:12;12.60;91.00
11549;DHT22;61444;59.472;18.306;2023-06-04T10:57:22;12.30;91.50
11549;DHT22;61444;59.472;18.306;2023-06-04T10:59:31;12.20;91.00
11549;DHT22;61444;59.472;18.306;2023-06-04T11:01:39;12.40;91.10
11549;DHT22;61444;59.472;18.306;2023-06-04T11:03:48;12.70;91.70
11549;DHT22;61444;59.472;18.306;2023-06-04T11:05:59;12.90;92.10
11549;DHT22;61444;59.472;18.306;2023-06-04T11:08:08;13.20;91.50
11549;DHT22;61444;59.472;18.306;2023-06-04T11:10:18;13.40;91.20
11549;DHT22;61444;59.472;18.306;2023-06-04T11:12:43;13.50;90.80
11549;DHT22;61444;59.472;18.306;2023-06-04T11:14:55;13.50;91.50
11549;DHT22;61444;59.472;18.306;2023-06-04T11:17:11;13.30;88.30
11549;DHT22;61444;59.472;18.306;2023-06-04T11:19:20;13.30;90.60
11549;DHT22;61444;59.472;18.306;2023-06-04T11:21:35;13.50;89.20
11549;DHT22;61444;59.472;18.306;2023-06-04T11:23:45;13.50;90.40
11549;DHT22;61444;59.472;18.306;2023-06-04T11:25:53;13.60;88.90
11549;DHT22;61444;59.472;18.306;2023-06-04T11:28:03;13.70;89.50
11549;DHT22;61444;59.472;18.306;2023-06-04T11:30:13;13.80;90.80
11549;DHT22;61444;59.472;18.306;2023-06-04T11:32:22;13.80;87.90
11549;DHT22;61444;59.472;18.306;2023-06-04T11:34:32;14.00;90.10
11549;DHT22;61444;59.472;18.306;2023-06-04T11:36:42;13.60;86.20
11549;DHT22;61444;59.472;18.306;2023-06-04T11:38:58;13.30;88.30
11549;DHT22;61444;59.472;18.306;2023-06-04T11:41:06;13.20;90.00
11549;DHT22;61444;59.472;18.306;2023-06-04T11:43:16;13.40;88.60
11549;DHT22;61444;59.472;18.306;2023-06-04T11:45:24;13.60;88.50
11549;DHT22;61444;59.472;18.306;2023-06-04T11:47:34;13.70;85.80
11549;DHT22;61444;59.472;18.306;2023-06-04T11:49:44;13.40;86.40
11549;DHT22;61444;59.472;18.306;2023-06-04T11:51:55;13.80;88.40
11549;DHT22;61444;59.472;18.306;2023-06-04T11:54:04;14.10;86.30
11549;DHT22;61444;59.472;18.306;2023-06-04T11:56:13;14.40;86.70
11549;DHT22;61444;59.472;18.306;2023-06-04T11:58:23;14.20;84.00
11549;DHT22;61444;59.472;18.306;2023-06-04T12:00:32;14.20;86.50
11549;DHT22;61444;59.472;18.306;2023-06-04T12:02:49;14.30;85.50
11549;DHT22;61444;59.472;18.306;2023-06-04T12:05:10;14.40;87.40
11549;DHT22;61444;59.472;18.306;2023-06-04T12:07:23;14.20;84.50
11549;DHT22;61444;59.472;18.306;2023-06-04T12:09:33;13.90;84.20
11549;DHT22;61444;59.472;18.306;2023-06-04T12:11:43;13.80;84.70
11549;DHT22;61444;59.472;18.306;2023-06-04T12:13:52;13.80;85.20
11549;DHT22;61444;59.472;18.306;2023-06-04T12:16:01;14.00;83.80
11549;DHT22;61444;59.472;18.306;2023-06-04T12:18:09;14.00;83.20
11549;DHT22;61444;59.472;18.306;2023-06-04T12:20:27;14.30;85.50
11549;DHT22;61444;59.472;18.306;2023-06-04T12:22:46;14.10;82.60
11549;DHT22;61444;59.472;18.306;2023-06-04T12:24:56;14.20;84.20
11549;DHT22;61444;59.472;18.306;2023-06-04T12:27:08;14.10;83.40
11549;DHT22;61444;59.472;18.306;2023-06-04T12:29:18;13.70;82.70
11549;DHT22;61444;59.472;18.306;2023-06-04T12:31:27;13.80;83.40
11549;DHT22;61444;59.472;18.306;2023-06-04T12:33:41;13.90;84.20
11549;DHT22;61444;59.472;18.306;2023-06-04T12:35:50;13.60;81.90
11549;DHT22;61444;59.472;18.306;2023-06-04T12:38:03;13.70;85.10
11549;DHT22;61444;59.472;18.306;2023-06-04T12:40:12;13.90;82.20
11549;DHT22;61444;59.472;18.306;2023-06-04T12:42:21;14.10;83.60
11549;DHT22;61444;59.472;18.306;2023-06-04T12:44:30;14.00;81.00
11549;DHT22;61444;59.472;18.306;2023-06-04T12:46:42;13.90;84.10
11549;DHT22;61444;59.472;18.306;2023-06-04T12:48:51;13.90;82.50
11549;DHT22;61444;59.472;18.306;2023-06-04T12:51:01;14.10;83.40
11549;DHT22;61444;59.472;18.306;2023-06-04T12:53:11;14.10;81.90
11549;DHT22;61444;59.472;18.306;2023-06-04T12:55:20;14.30;82.80
11549;DHT22;61444;59.472;18.306;2023-06-04T12:57:32;15.10;85.30
11549;DHT22;61444;59.472;18.306;2023-06-04T12:59:41;15.40;80.00
11549;DHT22;61444;59.472;18.306;2023-06-04T13:01:50;15.10;79.80
11549;DHT22;61444;59.472;18.306;2023-06-04T13:03:59;15.00;81.20
11549;DHT22;61444;59.472;18.306;2023-06-04T13:06:08;14.90;81.00
11549;DHT22;61444;59.472;18.306;2023-06-04T13:08:19;14.70;80.60
11549;DHT22;61444;59.472;18.306;2023-06-04T13:10:27;14.70;82.40
11549;DHT22;61444;59.472;18.306;2023-06-04T13:12:36;14.50;82.20
11549;DHT22;61444;59.472;18.306;2023-06-04T13:14:45;14.40;83.40
11549;DHT22;61444;59.472;18.306;2023-06-04T13:16:53;14.50;84.40
11549;DHT22;61444;59.472;18.306;2023-06-04T13:19:06;14.50;83.40
11549;DHT22;61444;59.472;18.306;2023-06-04T13:21:15;14.60;86.70
11549;DHT22;61444;59.472;18.306;2023-06-04T13:23:25;14.60;85.00
11549;DHT22;61444;59.472;18.306;2023-06-04T13:25:54;14.40;84.40
11549;DHT22;61444;59.472;18.306;2023-06-04T13:28:03;14.50;84.00
11549;DHT22;61444;59.472;18.306;2023-06-04T13:30:13;14.80;84.10
11549;DHT22;61444;59.472;18.306;2023-06-04T13:32:22;14.50;86.30
11549;DHT22;61444;59.472;18.306;2023-06-04T13:34:31;14.60;85.30
11549;DHT22;61444;59.472;18.306;2023-06-04T13:36:40;14.70;83.80